Time;durP1;ratioP1;P1;durP2;ratioP2;P2;SDS_P1;SDS_P2;PMS_P1;PMS_P2;Temp;Humidity;BMP_temperature;BMP_pressure;BME280_temperature;BME280_humidity;BME280_pressure;Samples;Min_cycle;Max_cycle;Signal;HPM_P1;HPM_P2
2022/06/06 00:00:47;;;;;;;7.88;3.83;;;;;;;22.18;38.09;99258.34;4982224;28;20406;-71
2022/06/06 00:03:17;;;;;;;7.13;3.60;;;;;;;21.82;38.62;99245.16;5014080;28;20038;-73
2022/06/06 00:05:47;;;;;;;10.52;3.97;;;;;;;21.91;38.54;99257.22;5013301;28;20060;-71
2022/06/06 00:08:14;;;;;;;7.03;3.53;;;;;;;22.04;38.16;99253.44;4995932;28;20115;-72
2022/06/06 00:10:41;;;;;;;7.68;3.60;;;;;;;22.02;38.50;99255.56;5012034;28;20410;-72
2022/06/06 00:13:08;;;;;;;5.97;3.58;;;;;;;22.00;38.28;99245.00;4996265;28;20175;-72
2022/06/06 00:15:34;;;;;;;9.43;3.15;;;;;;;21.93;38.10;99257.00;4996368;28;20392;-73
2022/06/06 00:18:03;;;;;;;13.40;3.08;;;;;;;21.85;38.67;99250.09;4996615;28;20075;-71
2022/06/06 00:20:30;;;;;;;6.28;2.75;;;;;;;21.68;38.72;99211.31;4995841;28;20045;-72
2022/06/06 00:22:57;;;;;;;8.10;3.10;;;;;;;21.93;38.76;99259.69;5030421;28;20214;-72
2022/06/06 00:25:23;;;;;;;6.78;2.97;;;;;;;21.83;38.71;99248.69;4997688;28;20531;-72
2022/06/06 00:27:49;;;;;;;6.00;2.80;;;;;;;21.84;38.49;99253.88;4981702;28;20077;-72
2022/06/06 00:30:15;;;;;;;14.00;3.05;;;;;;;21.69;38.53;99221.88;4981344;28;20396;-72
2022/06/06 00:35:25;;;;;;;7.05;3.20;;;;;;;21.81;38.51;99246.22;4999758;28;20041;-72
2022/06/06 00:37:51;;;;;;;8.63;3.40;;;;;;;21.87;38.40;99256.09;5013802;28;20056;-78
2022/06/06 00:40:21;;;;;;;6.05;3.50;;;;;;;22.06;38.42;99254.03;4997463;28;20131;-75
2022/06/06 00:42:47;;;;;;;6.10;3.17;;;;;;;21.80;38.76;99255.41;4997353;28;20149;-74
2022/06/06 00:45:28;;;;;;;5.90;3.20;;;;;;;21.92;38.63;99255.38;4996988;28;20140;-74
2022/06/06 00:48:10;;;;;;;5.65;2.95;;;;;;;21.97;38.65;99261.72;4996684;28;20098;-75
2022/06/06 00:51:04;;;;;;;5.55;2.95;;;;;;;22.02;38.63;99267.19;5029658;28;20172;-72
2022/06/06 00:53:38;;;;;;;8.63;3.40;;;;;;;21.88;38.51;99273.94;4997186;28;20091;-72
2022/06/06 00:56:13;;;;;;;7.13;3.05;;;;;;;21.90;38.18;99269.13;5013298;28;20046;-70
2022/06/06 00:58:40;;;;;;;7.72;3.05;;;;;;;21.50;39.02;99254.72;4996422;28;20045;-71
2022/06/06 01:01:07;;;;;;;8.05;2.97;;;;;;;21.57;38.86;99258.13;4997200;28;20045;-72
2022/06/06 01:03:35;;;;;;;3.92;2.80;;;;;;;21.69;38.79;99267.03;5013123;28;20053;-71
2022/06/06 01:06:01;;;;;;;8.68;3.40;;;;;;;21.36;38.94;99234.41;5013076;28;20048;-72
2022/06/06 01:08:27;;;;;;;9.25;3.45;;;;;;;21.40;39.24;99246.41;4980522;28;20042;-72
2022/06/06 01:10:53;;;;;;;4.80;3.10;;;;;;;21.32;39.40;99257.56;5029655;28;20046;-76
2022/06/06 01:13:22;;;;;;;7.35;2.85;;;;;;;21.46;39.28;99254.38;4996884;28;20052;-73
2022/06/06 01:15:55;;;;;;;5.82;3.30;;;;;;;21.52;39.29;99255.31;5029649;28;20499;-72
2022/06/06 01:18:49;;;;;;;5.82;3.13;;;;;;;21.47;39.34;99247.91;4996643;28;20045;-71
2022/06/06 01:21:45;;;;;;;10.63;3.30;;;;;;;21.54;39.39;99248.59;5029408;28;20060;-72
2022/06/06 01:24:37;;;;;;;7.10;3.45;;;;;;;21.55;39.26;99246.72;4996374;28;20100;-72
2022/06/06 01:27:20;;;;;;;11.35;3.65;;;;;;;21.64;39.15;99248.00;4995840;28;20045;-72
2022/06/06 01:29:50;;;;;;;6.50;3.50;;;;;;;21.54;39.33;99254.00;5012690;28;20577;-74
2022/06/06 01:32:18;;;;;;;10.85;3.83;;;;;;;21.55;39.23;99247.56;4996507;28;20045;-74
2022/06/06 01:34:48;;;;;;;8.85;3.30;;;;;;;21.32;39.48;99252.16;4980250;28;20583;-73
2022/06/06 01:37:38;;;;;;;10.85;3.63;;;;;;;21.62;39.11;99250.09;4996899;28;20041;-73
2022/06/06 01:40:11;;;;;;;5.68;3.20;;;;;;;21.55;39.53;99265.66;5028819;28;20088;-73
2022/06/06 01:42:42;;;;;;;6.60;3.22;;;;;;;21.65;39.19;99263.16;5028965;28;20045;-73
2022/06/06 01:45:33;;;;;;;9.57;3.22;;;;;;;21.66;39.43;99268.31;5012385;28;20531;-74
2022/06/06 01:48:03;;;;;;;;;;;;;;;21.73;39.13;99266.31;4997201;28;20645;-72
2022/06/06 01:50:30;;;;;;;10.38;3.45;;;;;;;21.36;39.49;99237.09;4996653;28;19921;-74
2022/06/06 01:53:02;;;;;;;8.82;3.20;;;;;;;21.43;39.63;99262.16;4996525;28;20505;-77
2022/06/06 01:55:30;;;;;;;8.93;3.10;;;;;;;21.66;39.37;99260.22;4996642;28;20053;-74
2022/06/06 01:58:01;;;;;;;10.15;3.45;;;;;;;21.73;39.34;99259.28;5015203;28;20072;-78
2022/06/06 02:00:28;;;;;;;12.68;3.53;;;;;;;21.65;39.47;99265.84;5014995;28;20084;-76
2022/06/06 02:02:54;;;;;;;10.15;3.70;;;;;;;21.62;39.51;99260.91;5031346;28;20061;-74
2022/06/06 02:05:20;;;;;;;9.80;4.00;;;;;;;21.57;39.42;99252.72;5000124;28;20049;-74
2022/06/06 02:07:46;;;;;;;10.68;4.20;;;;;;;21.58;39.41;99265.16;4999098;28;20455;-75
2022/06/06 02:10:15;;;;;;;11.38;4.30;;;;;;;21.73;39.41;99267.38;5032832;28;20104;-74
2022/06/06 02:12:42;;;;;;;8.70;3.40;;;;;;;21.71;39.40;99259.53;5015045;28;20084;-74
2022/06/06 02:15:10;;;;;;;10.05;3.97;;;;;;;21.73;39.16;99254.69;4998158;28;20506;-71
2022/06/06 02:17:36;;;;;;;6.80;3.72;;;;;;;21.35;39.74;99259.78;4996541;28;20041;-71
2022/06/06 02:20:04;;;;;;;8.07;4.00;;;;;;;21.38;40.28;99262.03;5028762;28;20091;-71
2022/06/06 02:22:31;;;;;;;10.23;4.28;;;;;;;21.28;40.18;99249.09;5012337;28;20525;-70
2022/06/06 02:24:58;;;;;;;10.15;4.47;;;;;;;21.38;40.20;99253.91;4996540;28;20173;-70
2022/06/06 02:27:24;;;;;;;8.98;4.80;;;;;;;21.35;40.04;99259.78;4980025;28;20037;-70
2022/06/06 02:29:50;;;;;;;11.45;4.70;;;;;;;21.33;40.20;99243.00;4979672;28;20045;-70
2022/06/06 02:32:15;;;;;;;14.30;4.45;;;;;;;21.39;39.96;99264.50;4995876;28;20525;-71
2022/06/06 02:34:41;;;;;;;9.30;4.60;;;;;;;21.39;40.13;99259.09;4996026;28;20045;-71
2022/06/06 02:37:07;;;;;;;11.88;4.70;;;;;;;21.31;40.13;99234.31;4995950;28;20048;-71
2022/06/06 02:39:33;;;;;;;10.65;5.40;;;;;;;21.46;40.20;99257.06;5012854;28;20038;-72
2022/06/06 02:41:59;;;;;;;11.90;5.18;;;;;;;21.39;40.17;99239.34;4999343;28;20071;-73
2022/06/06 02:44:25;;;;;;;16.38;6.70;;;;;;;21.61;39.99;99270.94;5015828;28;20160;-69
2022/06/06 02:46:51;;;;;;;11.80;5.55;;;;;;;21.62;39.67;99269.88;4998602;28;20041;-70
2022/06/06 02:49:19;;;;;;;11.05;6.20;;;;;;;21.60;40.15;99273.88;4997522;28;20585;-69
2022/06/06 02:51:45;;;;;;;15.35;5.53;;;;;;;21.63;40.21;99268.78;4996615;28;20048;-70
2022/06/06 02:54:14;;;;;;;11.75;6.95;;;;;;;21.61;40.16;99270.94;4996564;28;20045;-71
2022/06/06 02:56:40;;;;;;;16.77;7.05;;;;;;;21.68;40.09;99268.06;5029362;28;20050;-71
2022/06/06 02:59:07;;;;;;;17.02;7.00;;;;;;;21.85;39.89;99274.41;5012657;28;20144;-72
2022/06/06 03:01:34;;;;;;;16.30;7.80;;;;;;;21.75;40.32;99276.94;4980415;28;20045;-72
2022/06/06 03:04:00;;;;;;;12.93;7.82;;;;;;;21.74;40.76;99269.84;5014017;28;20140;-76
2022/06/06 03:06:50;;;;;;;20.45;9.13;;;;;;;22.02;40.02;99283.44;4998993;28;20140;-70
2022/06/06 03:09:29;;;;;;;17.40;9.68;;;;;;;22.07;40.18;99291.66;5031477;28;20129;-71
2022/06/06 03:12:12;;;;;;;20.48;8.52;;;;;;;21.79;40.67;99267.25;4998776;28;20499;-71
2022/06/06 03:14:50;;;;;;;17.98;8.98;;;;;;;21.84;40.86;99283.59;4998200;28;20419;-71
2022/06/06 03:21:04;;;;;;;16.65;7.88;;;;;;;22.27;39.73;99286.63;5014559;28;20080;-72
2022/06/06 03:23:37;;;;;;;23.13;8.23;;;;;;;22.09;40.11;99272.47;5010500;28;20050;-68
2022/06/06 03:26:25;;;;;;;15.93;7.90;;;;;;;22.36;39.93;99296.00;4977763;28;20041;-68
2022/06/06 03:29:13;;;;;;;13.00;7.65;;;;;;;22.41;39.77;99298.00;4993513;28;20046;-66
2022/06/06 03:32:03;;;;;;;13.60;7.22;;;;;;;22.46;39.93;99296.22;4993950;28;20045;-72
2022/06/06 03:34:30;;;;;;;;;;;;;;;22.62;39.82;99303.56;4994418;28;20046;-70
2022/06/06 03:37:10;;;;;;;22.52;7.55;;;;;;;22.67;39.65;99292.84;4977054;28;19927;-70
2022/06/06 03:39:44;;;;;;;17.35;8.13;;;;;;;22.48;40.17;99298.69;4993607;28;20077;-68
2022/06/06 03:42:14;;;;;;;14.23;6.30;;;;;;;22.82;39.30;99303.91;5009785;28;20054;-69
2022/06/06 03:44:40;;;;;;;10.07;5.82;;;;;;;22.54;39.21;99279.59;4993132;28;20415;-69
2022/06/06 03:47:29;;;;;;;8.27;4.95;;;;;;;22.89;38.52;99282.09;4993161;28;20042;-67
2022/06/06 03:50:10;;;;;;;10.77;5.00;;;;;;;23.06;38.00;99305.41;4977018;28;20248;-68
2022/06/06 03:52:59;;;;;;;12.45;4.95;;;;;;;23.03;38.53;99315.94;4960971;28;20046;-70
2022/06/06 03:55:58;;;;;;;7.30;4.25;;;;;;;23.47;37.47;99308.78;4989734;28;20048;-70
2022/06/06 03:58:28;;;;;;;9.35;4.38;;;;;;;23.27;37.99;99290.31;5030332;28;20084;-69
2022/06/06 04:00:55;;;;;;;6.82;4.07;;;;;;;23.37;37.55;99305.94;4981343;28;20119;-74
2022/06/06 04:03:21;;;;;;;10.80;4.05;;;;;;;23.36;37.62;99315.13;5014033;28;20121;-76
2022/06/06 04:05:47;;;;;;;9.95;4.10;;;;;;;23.39;37.54;99312.72;5014209;28;20046;-75
2022/06/06 04:08:13;;;;;;;12.10;4.40;;;;;;;23.32;37.43;99314.81;4997532;28;20525;-77
2022/06/06 04:11:11;;;;;;;10.85;3.97;;;;;;;23.63;37.42;99311.47;5013590;28;20049;-75
2022/06/06 04:13:55;;;;;;;8.70;3.88;;;;;;;24.27;36.35;99302.56;4974193;28;20050;-75
2022/06/06 04:16:41;;;;;;;7.97;4.10;;;;;;;24.86;34.71;99304.25;5031416;28;20132;-74
2022/06/06 04:19:11;;;;;;;10.85;4.10;;;;;;;24.93;34.56;99304.06;5030237;28;20051;-74
2022/06/06 04:21:56;;;;;;;8.77;3.72;;;;;;;25.24;34.02;99295.06;5030150;28;20072;-75
2022/06/06 04:24:41;;;;;;;10.90;4.20;;;;;;;25.16;34.16;99289.28;5031420;28;20127;-73
2022/06/06 04:27:23;;;;;;;7.57;3.42;;;;;;;24.96;34.38;99284.50;5031408;28;20091;-75
2022/06/06 04:29:58;;;;;;;11.75;3.50;;;;;;;25.06;34.27;99264.75;5029994;28;20100;-75
2022/06/06 04:32:44;;;;;;;10.75;3.80;;;;;;;25.11;33.99;99297.41;5013810;28;20049;-75
2022/06/06 04:35:32;;;;;;;6.93;3.55;;;;;;;25.35;33.71;99304.97;5030322;28;20050;-75
2022/06/06 04:38:14;;;;;;;9.13;3.75;;;;;;;25.37;33.61;99304.72;5013882;28;20061;-76
2022/06/06 04:41:26;;;;;;;7.97;2.80;;;;;;;25.31;33.30;99308.44;4984367;28;20033;-75
2022/06/06 04:44:09;;;;;;;6.65;3.55;;;;;;;25.26;33.65;99313.84;4937907;28;20136;-73
2022/06/06 04:46:42;;;;;;;8.73;3.80;;;;;;;25.18;33.98;99317.03;4981195;28;20402;-76
2022/06/06 04:49:10;;;;;;;10.55;3.55;;;;;;;25.19;33.75;99324.94;5013173;28;20081;-73
2022/06/06 04:51:36;;;;;;;6.35;3.30;;;;;;;25.16;33.70;99317.28;4980820;28;20133;-75
2022/06/06 04:54:03;;;;;;;8.15;3.50;;;;;;;25.03;33.74;99293.28;5013216;28;20045;-72
2022/06/06 04:56:29;;;;;;;12.93;3.15;;;;;;;25.25;33.43;99334.75;5013310;28;20044;-73
2022/06/06 04:58:57;;;;;;;9.77;3.33;;;;;;;25.41;33.21;99333.00;4989858;28;20058;-71
2022/06/06 05:01:24;;;;;;;3.92;2.80;;;;;;;25.40;33.01;99337.63;4975079;28;20140;-71
2022/06/06 05:03:50;;;;;;;6.05;2.80;;;;;;;25.40;32.61;99348.50;4992094;28;20054;-72
2022/06/06 05:06:41;;;;;;;10.40;2.80;;;;;;;25.72;32.68;99343.84;4975859;28;20137;-73
2022/06/06 05:09:28;;;;;;;7.80;3.15;;;;;;;25.74;32.36;99343.59;4992435;28;20060;-78
2022/06/06 05:12:16;;;;;;;5.93;2.85;;;;;;;25.77;32.23;99345.78;4975220;28;20050;-72
2022/06/06 05:15:09;;;;;;;7.35;2.95;;;;;;;25.90;32.20;99348.84;5007956;28;20192;-75
2022/06/06 05:17:59;;;;;;;8.25;3.20;;;;;;;26.05;32.14;99354.38;4961370;28;20510;-72
2022/06/06 05:20:33;;;;;;;5.78;2.90;;;;;;;25.83;31.91;99358.31;5003144;28;20050;-72
2022/06/06 05:23:07;;;;;;;8.13;2.88;;;;;;;26.19;31.29;99361.00;4972495;28;20041;-71
2022/06/06 05:25:40;;;;;;;6.70;2.92;;;;;;;26.19;31.60;99363.72;4988739;28;20042;-71
2022/06/06 05:28:21;;;;;;;5.65;3.10;;;;;;;26.24;31.65;99361.03;5005976;28;20047;-72
2022/06/06 05:31:18;;;;;;;6.95;2.88;;;;;;;26.14;31.01;99358.25;5005573;28;20046;-71
2022/06/06 05:33:54;;;;;;;5.68;2.88;;;;;;;26.24;30.76;99349.31;4990357;28;20046;-71
2022/06/06 05:36:35;;;;;;;4.72;2.60;;;;;;;26.34;30.88;99365.66;5008187;28;20416;-72
2022/06/06 05:39:10;;;;;;;5.53;2.72;;;;;;;26.30;30.51;99354.50;4975608;28;20042;-73
2022/06/06 05:42:13;;;;;;;6.53;2.53;;;;;;;26.49;30.11;99346.69;5008858;28;20038;-71
2022/06/06 05:44:54;;;;;;;7.40;3.25;;;;;;;26.65;29.60;99362.00;4974861;28;20041;-73
2022/06/06 05:47:52;;;;;;;7.97;3.28;;;;;;;26.78;30.17;99363.41;5007552;28;20050;-72
2022/06/06 05:50:39;;;;;;;7.82;2.90;;;;;;;26.78;29.97;99363.41;4991159;28;20053;-74
2022/06/06 05:53:30;;;;;;;6.55;2.75;;;;;;;26.91;30.00;99365.63;5008822;28;20531;-74
2022/06/06 05:56:17;;;;;;;6.45;2.83;;;;;;;26.92;30.23;99364.50;4976003;28;20065;-76
2022/06/06 05:58:50;;;;;;;11.55;3.00;;;;;;;27.10;29.42;99370.25;4991721;28;20157;-75
2022/06/06 06:01:44;;;;;;;12.73;3.13;;;;;;;27.17;29.16;99378.19;5007753;28;20042;-75
2022/06/06 06:04:41;;;;;;;4.97;2.78;;;;;;;27.32;28.42;99367.31;4977681;28;20060;-76
2022/06/06 06:07:19;;;;;;;7.65;2.95;;;;;;;27.37;28.35;99378.22;4991517;28;20074;-74
2022/06/06 06:10:00;;;;;;;6.03;2.97;;;;;;;27.44;28.17;99370.56;4975925;28;20141;-74
2022/06/06 06:12:41;;;;;;;8.50;2.50;;;;;;;27.40;28.70;99367.56;5007646;28;21034;-75
2022/06/06 06:15:33;;;;;;;5.68;3.15;;;;;;;27.41;28.73;99350.13;4995402;28;20045;-73
2022/06/06 06:18:00;;;;;;;6.07;3.00;;;;;;;27.50;28.44;99364.00;4995720;28;20045;-75
2022/06/06 06:20:30;;;;;;;7.38;2.70;;;;;;;27.62;28.09;99361.81;4979088;28;20042;-75
2022/06/06 06:23:05;;;;;;;7.45;2.80;;;;;;;27.77;27.79;99338.03;5011524;28;20100;-74
2022/06/06 06:25:36;;;;;;;6.03;2.80;;;;;;;27.84;28.25;99346.78;4995970;28;20049;-74
2022/06/06 06:28:10;;;;;;;12.77;3.00;;;;;;;28.07;27.43;99352.72;4996051;28;20048;-75
2022/06/06 06:30:56;;;;;;;9.20;3.05;;;;;;;28.55;26.43;99361.03;5012009;28;20108;-74
2022/06/06 06:33:48;;;;;;;8.50;2.85;;;;;;;28.85;26.37;99360.84;4978803;28;20153;-74
2022/06/06 06:36:34;;;;;;;9.32;3.15;;;;;;;29.14;25.78;99347.25;4979488;28;20486;-74
2022/06/06 06:39:15;;;;;;;6.47;2.88;;;;;;;29.54;24.84;99346.91;4994646;28;20416;-75
2022/06/06 06:42:03;;;;;;;8.65;4.43;;;;;;;29.89;24.29;99352.09;4994569;28;20428;-75
2022/06/06 06:44:39;;;;;;;5.95;2.80;;;;;;;30.01;24.63;99351.69;4978388;28;20053;-74
2022/06/06 06:47:17;;;;;;;9.30;4.22;;;;;;;30.31;24.63;99352.16;4963025;28;20045;-72
2022/06/06 06:49:58;;;;;;;11.07;3.10;;;;;;;30.31;24.32;99346.69;5002091;28;20045;-73
2022/06/06 06:52:39;;;;;;;7.60;3.30;;;;;;;30.48;24.21;99341.53;5025576;28;20040;-73
2022/06/06 06:55:15;;;;;;;8.32;2.78;;;;;;;30.69;23.84;99351.09;5024778;28;20407;-75
2022/06/06 06:58:03;;;;;;;5.47;2.90;;;;;;;30.90;23.18;99352.47;5026175;28;20068;-75
2022/06/06 07:00:38;;;;;;;4.72;3.08;;;;;;;31.21;23.16;99343.75;4996635;28;20431;-74
2022/06/06 07:09:42;;;;;;;8.23;3.13;;;;;;;31.80;22.54;99343.84;4998254;28;20050;-71
2022/06/06 07:12:32;;;;;;;5.85;2.90;;;;;;;32.22;21.30;99333.41;4983559;28;20501;-74
2022/06/06 07:15:04;;;;;;;4.70;2.53;;;;;;;32.23;21.10;99340.53;4968084;28;20132;-75
2022/06/06 07:17:34;;;;;;;8.70;4.75;;;;;;;32.49;20.74;99338.09;4982857;28;20085;-75
2022/06/06 07:20:04;;;;;;;6.57;2.80;;;;;;;32.72;20.48;99347.22;4977008;28;20102;-75
2022/06/06 07:25:24;;;;;;;7.43;3.20;;;;;;;32.79;20.32;99351.16;4998500;28;21039;-75
2022/06/06 07:27:50;;;;;;;3.85;2.60;;;;;;;32.44;20.19;99354.69;4997108;28;20041;-77
2022/06/06 07:30:17;;;;;;;8.63;3.10;;;;;;;32.85;19.85;99344.41;4982870;28;20046;-77
2022/06/06 07:32:54;;;;;;;7.20;2.70;;;;;;;33.59;19.36;99352.00;5012426;28;20062;-77
2022/06/06 07:35:35;;;;;;;4.10;2.70;;;;;;;33.87;18.61;99347.13;4982668;28;20100;-76
2022/06/06 07:38:26;;;;;;;2.95;2.72;;;;;;;34.89;17.76;99341.94;4981138;28;20046;-76
2022/06/06 07:41:11;;;;;;;5.28;2.10;;;;;;;36.77;16.47;99338.59;4964618;28;20482;-76
2022/06/06 07:44:02;;;;;;;4.68;2.13;;;;;;;39.99;13.54;99347.63;4966962;28;20391;-73
2022/06/06 07:46:56;;;;;;;3.67;1.98;;;;;;;42.97;11.15;99350.00;4967978;28;20084;-76
2022/06/06 07:49:27;;;;;;;6.82;2.40;;;;;;;45.53;9.31;99343.00;4991668;28;20085;-79
2022/06/06 07:51:59;;;;;;;9.63;2.50;;;;;;;47.38;7.53;99338.41;4981339;28;20038;-76
2022/06/06 07:54:34;;;;;;;7.68;2.67;;;;;;;48.61;7.08;99352.38;4963159;28;20070;-78
2022/06/06 07:57:06;;;;;;;10.27;2.10;;;;;;;49.93;6.07;99341.84;4981842;28;20045;-78
2022/06/06 07:59:44;;;;;;;5.75;2.72;;;;;;;49.69;5.76;99307.09;4985537;28;20060;-76
2022/06/06 08:02:11;;;;;;;1.73;1.60;;;;;;;48.53;6.52;99307.78;5019400;28;20064;-76
2022/06/06 08:04:39;;;;;;;6.75;1.77;;;;;;;46.56;7.19;99325.84;4988158;28;20093;-73
2022/06/06 08:07:17;;;;;;;6.63;2.08;;;;;;;45.77;7.74;99317.81;4974636;28;20100;-74
2022/06/06 08:09:46;;;;;;;3.72;1.92;;;;;;;43.60;9.41;99314.47;4995871;28;20395;-74
2022/06/06 08:12:41;;;;;;;4.33;2.17;;;;;;;43.42;9.48;99318.22;4990657;28;20045;-77
2022/06/06 08:15:27;;;;;;;7.82;2.28;;;;;;;44.49;8.71;99316.81;4957649;28;20041;-73
2022/06/06 08:18:22;;;;;;;7.07;2.22;;;;;;;43.80;9.06;99309.44;4987289;28;20042;-74
2022/06/06 08:20:48;;;;;;;6.55;2.35;;;;;;;41.92;10.38;99304.50;4985955;28;20081;-74
2022/06/06 08:23:15;;;;;;;7.32;2.15;;;;;;;40.17;11.65;99296.81;4976405;28;20463;-74
2022/06/06 08:25:42;;;;;;;9.68;2.30;;;;;;;38.61;12.83;99278.97;4971473;28;20460;-75
2022/06/06 08:28:09;;;;;;;8.20;2.53;;;;;;;37.59;13.88;99296.16;4938939;28;20041;-74
2022/06/06 08:30:36;;;;;;;2.30;2.00;;;;;;;39.51;12.30;99312.56;4985785;28;20049;-75
2022/06/06 08:33:02;;;;;;;7.85;2.38;;;;;;;42.08;10.56;99305.16;5006218;28;20212;-75
2022/06/06 08:35:38;;;;;;;5.85;2.17;;;;;;;44.79;8.41;99303.44;4957607;28;20136;-73
2022/06/06 08:38:28;;;;;;;10.73;2.10;;;;;;;46.55;7.14;99298.94;5008248;28;20045;-76
2022/06/06 08:41:04;;;;;;;4.75;1.73;;;;;;;47.51;6.68;99303.75;5005089;28;20092;-75
2022/06/06 08:43:42;;;;;;;5.85;2.40;;;;;;;46.39;7.35;99292.94;5024705;28;20049;-74
2022/06/06 08:46:11;;;;;;;8.85;1.83;;;;;;;44.28;8.76;99297.91;5003748;28;20701;-75
2022/06/06 08:48:41;;;;;;;5.80;2.30;;;;;;;44.82;8.47;99287.81;4988653;28;20045;-75
2022/06/06 08:51:31;;;;;;;4.88;2.00;;;;;;;45.89;7.98;99296.94;4968150;28;20105;-77
2022/06/06 08:54:28;;;;;;;6.90;2.10;;;;;;;47.82;6.87;99296.31;4968805;28;20034;-77
2022/06/06 08:57:19;;;;;;;9.45;2.15;;;;;;;48.18;6.52;99294.03;4969475;28;20514;-77
2022/06/06 09:00:07;;;;;;;6.97;2.00;;;;;;;49.71;5.51;99281.25;5001699;28;20145;-76
2022/06/06 09:02:52;;;;;;;4.80;1.63;;;;;;;48.45;6.42;99284.50;4953830;28;20038;-76
2022/06/06 09:05:39;;;;;;;3.05;1.90;;;;;;;46.30;7.58;99277.69;5002597;28;20050;-77
2022/06/06 09:08:24;;;;;;;6.65;1.70;;;;;;;43.41;8.88;99271.88;4954291;28;20053;-76
2022/06/06 09:11:24;;;;;;;4.78;1.98;;;;;;;41.42;10.41;99268.50;5001756;28;20042;-76
2022/06/06 09:14:11;;;;;;;5.53;1.92;;;;;;;39.79;11.59;99271.59;4985489;28;20046;-76
2022/06/06 09:16:59;;;;;;;3.50;2.50;;;;;;;40.30;11.37;99252.19;4954034;28;20050;-76
2022/06/06 09:19:44;;;;;;;7.45;2.00;;;;;;;43.82;9.19;99274.28;4986603;28;20428;-77
2022/06/06 09:22:38;;;;;;;4.30;1.80;;;;;;;46.42;7.56;99283.69;4970703;28;20109;-75
2022/06/06 09:25:27;;;;;;;6.22;2.03;;;;;;;48.99;6.13;99265.75;4974412;28;20603;-75
2022/06/06 09:28:21;;;;;;;6.50;1.85;;;;;;;50.98;5.31;99285.38;4968730;28;20057;-74
2022/06/06 09:31:24;;;;;;;8.25;1.80;;;;;;;51.52;4.60;99287.41;4987297;28;20050;-74
2022/06/06 09:34:28;;;;;;;3.20;1.85;;;;;;;52.46;4.03;99283.41;4988618;28;20046;-73
2022/06/06 09:37:09;;;;;;;6.07;1.50;;;;;;;51.97;3.73;99288.34;4961119;28;20050;-74
2022/06/06 09:39:51;;;;;;;6.55;1.67;;;;;;;49.54;4.90;99266.19;4972192;28;20057;-76
2022/06/06 09:42:43;;;;;;;3.10;1.40;;;;;;;46.45;6.46;99271.63;4972042;28;20046;-73
2022/06/06 09:45:29;;;;;;;1.98;1.50;;;;;;;44.09;7.78;99264.53;4955993;28;20523;-75
2022/06/06 09:47:57;;;;;;;7.25;1.90;;;;;;;43.28;8.65;99274.13;4988287;28;20512;-76
2022/06/06 09:50:40;;;;;;;6.67;2.10;;;;;;;43.26;8.95;99273.72;4971576;28;20046;-76
2022/06/06 09:53:13;;;;;;;12.07;2.20;;;;;;;43.06;8.65;99269.47;4971961;28;20046;-74
2022/06/06 09:59:34;;;;;;;4.72;1.75;;;;;;;40.45;10.29;99254.91;5003605;28;20559;-74
2022/06/06 10:02:32;;;;;;;7.57;1.90;;;;;;;39.34;11.07;99264.78;4936121;28;20137;-75
2022/06/06 10:05:19;;;;;;;4.65;1.70;;;;;;;38.17;12.20;99263.31;4993132;28;20050;-74
2022/06/06 10:08:05;;;;;;;9.77;2.00;;;;;;;37.36;12.98;99262.50;4956043;28;20053;-78
2022/06/06 10:10:52;;;;;;;8.35;2.33;;;;;;;38.10;12.46;99263.06;5001288;28;20053;-75
2022/06/06 10:13:22;;;;;;;6.78;2.00;;;;;;;40.69;10.53;99271.38;4988481;28;20491;-78
2022/06/06 10:15:51;;;;;;;5.85;2.08;;;;;;;43.60;8.99;99269.69;4992844;28;20651;-77
2022/06/06 10:18:54;;;;;;;6.90;1.90;;;;;;;46.49;7.25;99264.00;4976612;28;20069;-78
2022/06/06 10:21:23;;;;;;;2.25;1.95;;;;;;;47.75;5.74;99264.59;4974978;28;20478;-77
2022/06/06 10:24:00;;;;;;;2.72;1.75;;;;;;;46.71;6.46;99206.53;4975421;28;20045;-79
2022/06/06 10:26:50;;;;;;;3.80;1.88;;;;;;;45.28;7.33;99260.75;4974969;28;20096;-76
2022/06/06 10:29:27;;;;;;;5.22;1.50;;;;;;;43.05;8.75;99232.34;4974577;28;20427;-75
2022/06/06 10:32:31;;;;;;;4.63;1.58;;;;;;;41.03;9.49;99236.25;4941101;28;20038;-75
2022/06/06 10:35:26;;;;;;;5.10;1.50;;;;;;;39.44;10.62;99242.06;5002732;28;20129;-76
2022/06/06 10:38:15;;;;;;;7.18;2.20;;;;;;;38.30;11.96;99241.91;4971330;28;20078;-75
2022/06/06 10:41:22;;;;;;;5.32;2.10;;;;;;;39.51;11.13;99245.84;4970955;28;20623;-75
2022/06/06 10:44:10;;;;;;;4.28;1.90;;;;;;;41.95;9.64;99249.94;4973681;28;20041;-75
2022/06/06 10:46:51;;;;;;;5.53;1.83;;;;;;;44.16;8.26;99255.38;4981211;28;20037;-77
2022/06/06 10:49:40;;;;;;;5.22;1.45;;;;;;;45.50;7.29;99234.38;4982316;28;20053;-79
2022/06/06 10:52:44;;;;;;;3.15;2.38;;;;;;;46.46;6.75;99258.38;4950343;28;20411;-78
2022/06/06 10:55:25;;;;;;;2.88;1.38;;;;;;;47.46;6.60;99252.72;4960983;28;20401;-76
2022/06/06 10:58:16;;;;;;;4.90;1.55;;;;;;;48.18;5.87;99251.75;4956841;28;20160;-78
2022/06/06 11:00:54;;;;;;;6.57;1.40;;;;;;;48.05;6.02;99250.66;4974643;28;20057;-79
2022/06/06 11:03:39;;;;;;;2.55;1.20;;;;;;;47.53;5.46;99235.78;4976774;28;20046;-78
2022/06/06 11:06:23;;;;;;;6.22;1.20;;;;;;;46.40;6.33;99229.91;4962396;28;20057;-75
2022/06/06 11:09:07;;;;;;;4.03;1.30;;;;;;;45.07;7.38;99241.88;4977766;28;20106;-80
2022/06/06 11:12:05;;;;;;;5.75;1.20;;;;;;;43.76;8.09;99235.84;4961261;28;20161;-78
2022/06/06 11:14:36;;;;;;;4.13;1.10;;;;;;;42.72;9.07;99237.09;4959388;28;20046;-77
2022/06/06 11:17:21;;;;;;;10.45;1.40;;;;;;;41.59;9.69;99221.44;5018801;28;20053;-78
2022/06/06 11:20:05;;;;;;;1.92;1.33;;;;;;;40.20;10.60;99220.13;4968961;28;20053;-76
2022/06/06 11:22:38;;;;;;;4.13;1.10;;;;;;;39.26;11.33;99224.09;4992394;28;20144;-77
2022/06/06 11:25:16;;;;;;;6.53;1.30;;;;;;;38.92;11.76;99222.72;4976437;28;20051;-76
2022/06/06 11:28:06;;;;;;;5.38;4.18;;;;;;;38.56;11.70;99204.28;4976080;28;20042;-76
2022/06/06 11:30:38;;;;;;;4.35;1.10;;;;;;;38.16;11.92;99211.75;4960505;28;20054;-76
2022/06/06 11:33:22;;;;;;;5.43;1.30;;;;;;;38.19;11.86;99205.50;4959597;28;20054;-75
2022/06/06 11:36:12;;;;;;;3.08;1.27;;;;;;;38.33;12.06;99216.22;4991210;28;20082;-75
2022/06/06 11:39:16;;;;;;;;;;;;;;;38.13;11.67;99209.69;4959155;28;20061;-75
2022/06/06 11:41:57;;;;;;;3.05;1.30;;;;;;;37.74;12.58;99192.91;4931231;29;20009;-76
2022/06/06 11:44:42;;;;;;;6.90;1.85;;;;;;;37.20;12.61;99189.47;4902188;29;20110;-76
2022/06/06 11:47:22;;;;;;;3.63;1.30;;;;;;;36.86;12.77;99198.97;4951714;28;20058;-76
2022/06/06 11:50:36;;;;;;;6.00;1.65;;;;;;;36.77;12.75;99189.94;4990139;28;20046;-76
2022/06/06 11:53:27;;;;;;;3.30;1.20;;;;;;;36.58;13.32;99191.56;4953830;28;20082;-76
2022/06/06 11:56:41;;;;;;;6.95;1.45;;;;;;;36.35;13.69;99188.34;4958014;28;20053;-76
2022/06/06 11:59:44;;;;;;;1.52;0.95;;;;;;;36.00;13.28;99180.63;4945876;28;20050;-74
2022/06/06 12:02:25;;;;;;;1.98;1.60;;;;;;;35.08;14.23;99178.72;4993489;28;20050;-75
2022/06/06 12:05:16;;;;;;;5.90;3.03;;;;;;;34.61;15.45;99190.78;4992508;28;20459;-75
2022/06/06 12:07:53;;;;;;;2.83;1.40;;;;;;;34.93;15.20;99179.25;4994756;28;20522;-78
2022/06/06 12:10:27;;;;;;;6.05;1.15;;;;;;;34.70;14.96;99177.81;4975942;28;20045;-76
2022/06/06 12:13:29;;;;;;;3.55;1.40;;;;;;;34.60;14.77;99178.94;4992641;28;20109;-76
2022/06/06 12:16:11;;;;;;;4.65;1.23;;;;;;;34.52;14.49;99182.50;5013926;28;20053;-76
2022/06/06 12:18:58;;;;;;;3.08;1.13;;;;;;;34.39;14.50;99175.22;5001378;28;20080;-73
2022/06/06 12:21:42;;;;;;;3.55;1.40;;;;;;;34.25;14.13;99155.25;5018167;28;20046;-76
2022/06/06 12:24:25;;;;;;;5.95;1.25;;;;;;;34.52;14.51;99182.50;4999818;28;20393;-74
2022/06/06 12:27:21;;;;;;;8.30;0.98;;;;;;;34.33;14.39;99183.94;5019916;28;20127;-75
2022/06/06 12:30:03;;;;;;;5.30;1.17;;;;;;;33.91;14.42;99177.25;4993288;28;20053;-76
2022/06/06 12:32:46;;;;;;;2.05;0.98;;;;;;;34.01;14.21;99180.50;4977180;28;20483;-76
2022/06/06 12:35:35;;;;;;;3.28;1.05;;;;;;;33.88;14.51;99186.13;4976912;28;20050;-75
2022/06/06 12:38:11;;;;;;;2.83;0.90;;;;;;;33.92;14.45;99170.63;5007884;28;20056;-76
2022/06/06 12:40:43;;;;;;;1.58;1.23;;;;;;;33.75;14.66;99176.88;4989606;28;20288;-76
2022/06/06 12:43:31;;;;;;;4.07;1.27;;;;;;;33.75;14.37;99184.34;4976322;28;20439;-77
2022/06/06 12:46:21;;;;;;;5.35;1.40;;;;;;;33.68;14.46;99178.47;5005735;28;20474;-76
2022/06/06 12:49:11;;;;;;;2.30;1.27;;;;;;;33.44;14.55;99167.88;4971917;28;20053;-76